Marys Corner, Washington
Current Conditions -  °F | °C
As of 11:35 PM on Saturday 22 Nov 2014 (Local Time) from KCLS Reporting Station
Overcast Overcast  
Wind Chill: 41°   Ceiling: 5500
Heat Index: 45°   Visibility: 10mi
Dew Point: 45°   Wind: 7mph
Humidity: 100%   Direction: 190°S
Pressure: 30.18"   Gusts: NA
Location:  46.6561°N, 122.993°W
Report Text: KCLS 230735Z AUTO 19006KT 10SM BKN055 BKN065 OVC080 07/07 A3018 RMK AO2
Loading
Personal Weather Stations






























Interactive Weather Map New forecast layout! Learn more

10-Day Weather Forecast

Advertisements
Track Severe Weather on mobile